Time;durP1;ratioP1;P1;durP2;ratioP2;P2;SDS_P1;SDS_P2;PMS_P1;PMS_P2;Temp;Humidity;BMP_temperature;BMP_pressure;BME280_temperature;BME280_humidity;BME280_pressure;Samples;Min_cycle;Max_cycle;Signal;HPM_P1;HPM_P2
2023/10/23 00:00:58;;;;;;;3.88;1.42;;;;;;;;;;5027976;28;20030;-82
2023/10/23 00:03:23;;;;;;;1.52;1.23;;;;;;;;;;5022822;28;20060;-82
2023/10/23 00:05:49;;;;;;;2.78;1.27;;;;;;;;;;5038176;28;20097;-82
2023/10/23 00:08:14;;;;;;;2.38;1.30;;;;;;;;;;5034796;28;20060;-82
2023/10/23 00:10:42;;;;;;;2.38;1.30;;;;;;;;;;5029758;28;20033;-82
2023/10/23 00:13:07;;;;;;;3.17;1.30;;;;;;;;;;5025717;28;20064;-81
2023/10/23 00:15:34;;;;;;;3.47;1.40;;;;;;;;;;5029252;28;20041;-82
2023/10/23 00:18:00;;;;;;;3.17;1.30;;;;;;;;;;5037266;28;20087;-82
2023/10/23 00:20:26;;;;;;;1.80;1.10;;;;;;;;;;5035705;28;20030;-82
2023/10/23 00:22:52;;;;;;;2.15;1.00;;;;;;;;;;5030503;28;20053;-82
2023/10/23 00:25:17;;;;;;;2.20;1.08;;;;;;;;;;5031589;28;20030;-82
2023/10/23 00:27:43;;;;;;;1.77;1.08;;;;;;;;;;5041466;28;20050;-82
2023/10/23 00:30:09;;;;;;;1.38;1.00;;;;;;;;;;5036739;28;20034;-82
2023/10/23 00:32:34;;;;;;;3.75;1.20;;;;;;;;;;5029813;28;20518;-82
2023/10/23 00:35:00;;;;;;;4.20;1.20;;;;;;;;;;5026187;28;20068;-82
2023/10/23 00:37:25;;;;;;;2.10;1.10;;;;;;;;;;5042244;28;20032;-82
2023/10/23 00:39:50;;;;;;;1.50;1.08;;;;;;;;;;5038122;28;20029;-82
2023/10/23 00:42:16;;;;;;;1.80;1.00;;;;;;;;;;5031191;28;20072;-82
2023/10/23 00:44:41;;;;;;;1.77;1.10;;;;;;;;;;5029359;28;20057;-82
2023/10/23 00:47:08;;;;;;;2.78;1.10;;;;;;;;;;5034530;28;20105;-82
2023/10/23 00:49:33;;;;;;;2.03;1.20;;;;;;;;;;5038217;28;20037;-82
2023/10/23 00:52:01;;;;;;;2.15;1.00;;;;;;;;;;5030273;28;20049;-82
2023/10/23 00:54:26;;;;;;;3.60;1.23;;;;;;;;;;5026841;28;20045;-82
2023/10/23 00:56:52;;;;;;;1.60;1.00;;;;;;;;;;5030862;28;20040;-82
2023/10/23 00:59:18;;;;;;;1.67;0.95;;;;;;;;;;5038900;28;20091;-82
2023/10/23 01:01:45;;;;;;;1.10;0.85;;;;;;;;;;5035222;28;20049;-82
2023/10/23 01:04:10;;;;;;;0.90;0.80;;;;;;;;;;5029561;28;20037;-82
2023/10/23 01:06:36;;;;;;;0.70;0.70;;;;;;;;;;5026309;28;20092;-82
2023/10/23 01:09:01;;;;;;;0.85;0.65;;;;;;;;;;5032586;28;20052;-82
2023/10/23 01:11:27;;;;;;;1.27;0.80;;;;;;;;;;5035784;28;20049;-82
2023/10/23 01:13:52;;;;;;;1.85;0.90;;;;;;;;;;5030620;28;20463;-82
2023/10/23 01:16:18;;;;;;;2.13;1.00;;;;;;;;;;5006946;28;20532;-82
2023/10/23 01:18:43;;;;;;;2.58;1.30;;;;;;;;;;5034611;28;20060;-82
2023/10/23 01:21:10;;;;;;;3.03;1.30;;;;;;;;;;5037524;28;20084;-82
2023/10/23 01:23:36;;;;;;;1.65;1.00;;;;;;;;;;5032979;28;20053;-81
2023/10/23 01:26:02;;;;;;;1.08;0.98;;;;;;;;;;5028091;28;20037;-82
2023/10/23 01:28:27;;;;;;;1.65;1.20;;;;;;;;;;5031431;28;20414;-82
2023/10/23 01:30:53;;;;;;;1.77;1.02;;;;;;;;;;5037729;28;20048;-82
2023/10/23 01:33:19;;;;;;;2.05;1.10;;;;;;;;;;5032813;28;20033;-82
2023/10/23 01:35:45;;;;;;;2.65;1.08;;;;;;;;;;5028327;28;20033;-82
2023/10/23 01:38:13;;;;;;;3.58;1.20;;;;;;;;;;5025333;28;20032;-81
2023/10/23 01:40:38;;;;;;;1.63;1.13;;;;;;;;;;5040029;28;20089;-82
2023/10/23 01:43:04;;;;;;;1.40;1.00;;;;;;;;;;5031853;28;20144;-82
2023/10/23 01:45:30;;;;;;;3.00;1.20;;;;;;;;;;5030209;28;20045;-82
2023/10/23 01:47:55;;;;;;;2.33;1.20;;;;;;;;;;5025842;28;20496;-82
2023/10/23 01:50:21;;;;;;;1.42;1.00;;;;;;;;;;5034199;28;20407;-82
2023/10/23 01:52:46;;;;;;;1.90;1.20;;;;;;;;;;5035017;28;20034;-82
2023/10/23 01:55:12;;;;;;;4.05;1.13;;;;;;;;;;5031779;28;20527;-82
2023/10/23 01:57:37;;;;;;;1.70;1.10;;;;;;;;;;5027264;28;20034;-82
2023/10/23 02:00:04;;;;;;;1.40;0.90;;;;;;;;;;5029924;28;20411;-82
2023/10/23 02:02:37;;;;;;;2.40;1.20;;;;;;;;;;5038107;28;20044;-82
2023/10/23 02:05:03;;;;;;;1.38;1.00;;;;;;;;;;5033734;28;20038;-82
2023/10/23 02:07:29;;;;;;;1.20;0.90;;;;;;;;;;5028041;28;20032;-82
2023/10/23 02:09:58;;;;;;;1.92;1.10;;;;;;;;;;5026404;28;20075;-82
2023/10/23 02:12:24;;;;;;;2.03;1.05;;;;;;;;;;5036788;28;20052;-82
2023/10/23 02:14:52;;;;;;;1.10;0.90;;;;;;;;;;5034381;28;20044;-82
2023/10/23 02:17:18;;;;;;;0.90;0.82;;;;;;;;;;5029462;28;20044;-81
2023/10/23 02:19:45;;;;;;;2.47;0.90;;;;;;;;;;5024090;28;20057;-82
2023/10/23 02:22:10;;;;;;;1.48;1.00;;;;;;;;;;5033366;28;20038;-82
2023/10/23 02:24:36;;;;;;;1.13;0.80;;;;;;;;;;5032195;28;20034;-82
2023/10/23 02:27:02;;;;;;;3.85;1.00;;;;;;;;;;5028936;28;20037;-82
2023/10/23 02:29:29;;;;;;;3.15;0.90;;;;;;;;;;5025574;28;20034;-82
2023/10/23 02:31:55;;;;;;;1.17;0.80;;;;;;;;;;5030521;28;20076;-82
2023/10/23 02:34:20;;;;;;;2.47;1.42;;;;;;;;;;5035660;28;20040;-82
2023/10/23 02:36:46;;;;;;;1.70;0.90;;;;;;;;;;5029700;28;20041;-82
2023/10/23 02:39:12;;;;;;;2.30;0.77;;;;;;;;;;5026268;28;20026;-81
2023/10/23 02:41:38;;;;;;;2.05;1.00;;;;;;;;;;5023675;28;20312;-82
2023/10/23 02:44:04;;;;;;;1.92;1.10;;;;;;;;;;5035814;28;20551;-82
2023/10/23 02:46:31;;;;;;;2.22;0.95;;;;;;;;;;5029621;28;20503;-82
2023/10/23 02:48:57;;;;;;;3.08;0.90;;;;;;;;;;5023864;28;20034;-82
2023/10/23 02:51:23;;;;;;;1.55;0.80;;;;;;;;;;5016231;28;20044;-81
2023/10/23 02:53:49;;;;;;;2.00;0.75;;;;;;;;;;5031411;28;20133;-82
2023/10/23 02:56:14;;;;;;;2.78;0.85;;;;;;;;;;5029410;28;20128;-82
2023/10/23 02:58:40;;;;;;;1.77;0.80;;;;;;;;;;5027996;28;20068;-82
2023/10/23 03:01:25;;;;;;;2.45;1.00;;;;;;;;;;5022369;28;20048;-82
2023/10/23 03:03:51;;;;;;;2.25;1.00;;;;;;;;;;5031895;28;20050;-82
2023/10/23 03:06:17;;;;;;;1.20;0.90;;;;;;;;;;5031844;28;20108;-82
2023/10/23 03:08:43;;;;;;;2.70;1.67;;;;;;;;;;5028907;28;20045;-82
2023/10/23 03:11:09;;;;;;;1.77;1.10;;;;;;;;;;5023030;28;20061;-81
2023/10/23 03:13:35;;;;;;;1.83;1.00;;;;;;;;;;5028130;28;20041;-82
2023/10/23 03:16:00;;;;;;;1.30;0.95;;;;;;;;;;5033639;28;20037;-82
2023/10/23 03:18:26;;;;;;;1.70;0.90;;;;;;;;;;5030870;28;20038;-82
2023/10/23 03:20:52;;;;;;;6.20;1.00;;;;;;;;;;5026429;28;20510;-82
2023/10/23 03:23:17;;;;;;;2.65;0.82;;;;;;;;;;5022958;28;20025;-82
2023/10/23 03:25:43;;;;;;;4.03;0.93;;;;;;;;;;5036930;28;20052;-82
2023/10/23 03:28:08;;;;;;;2.50;0.90;;;;;;;;;;5031359;28;20038;-82
2023/10/23 03:30:34;;;;;;;1.10;0.90;;;;;;;;;;5037851;28;20048;-82
2023/10/23 03:33:00;;;;;;;1.40;0.70;;;;;;;;;;5023274;28;20124;-82
2023/10/23 03:35:25;;;;;;;2.25;1.00;;;;;;;;;;5033409;28;20120;-82
2023/10/23 03:37:52;;;;;;;2.47;1.08;;;;;;;;;;5033698;28;20037;-81
2023/10/23 03:40:19;;;;;;;1.17;0.95;;;;;;;;;;5029397;28;20034;-81
2023/10/23 03:42:45;;;;;;;1.00;0.90;;;;;;;;;;5019771;28;20041;-81
2023/10/23 03:45:10;;;;;;;1.30;0.95;;;;;;;;;;5029070;28;20093;-82
2023/10/23 03:47:36;;;;;;;2.45;0.90;;;;;;;;;;5033301;28;20030;-82
2023/10/23 03:50:02;;;;;;;2.08;1.00;;;;;;;;;;5029573;28;20044;-82
2023/10/23 03:52:28;;;;;;;1.10;0.90;;;;;;;;;;5025523;28;20045;-82
2023/10/23 03:54:53;;;;;;;2.17;1.02;;;;;;;;;;5027295;28;20064;-82
2023/10/23 03:57:19;;;;;;;1.38;0.90;;;;;;;;;;5040059;28;20021;-82
2023/10/23 03:59:44;;;;;;;1.70;1.40;;;;;;;;;;5034672;28;20116;-82
2023/10/23 04:02:10;;;;;;;2.30;1.25;;;;;;;;;;5029991;28;20077;-82
2023/10/23 04:04:35;;;;;;;1.40;1.10;;;;;;;;;;5026152;28;20037;-82
2023/10/23 04:07:01;;;;;;;3.40;1.63;;;;;;;;;;5038040;28;20041;-82
2023/10/23 04:09:30;;;;;;;3.17;1.30;;;;;;;;;;5036681;28;20060;-82
2023/10/23 04:11:56;;;;;;;2.13;1.35;;;;;;;;;;5031632;28;20054;-82
2023/10/23 04:14:21;;;;;;;1.70;1.30;;;;;;;;;;5028095;28;20092;-82
2023/10/23 04:16:47;;;;;;;1.48;1.10;;;;;;;;;;5033275;28;20033;-81
2023/10/23 04:19:13;;;;;;;1.52;0.88;;;;;;;;;;5039581;28;20030;-82
2023/10/23 04:21:41;;;;;;;2.13;0.95;;;;;;;;;;5033498;28;20076;-82
2023/10/23 04:24:09;;;;;;;2.05;0.98;;;;;;;;;;5029715;28;20044;-81
2023/10/23 04:26:34;;;;;;;1.00;0.80;;;;;;;;;;5031873;28;20045;-81
2023/10/23 04:29:00;;;;;;;1.58;0.95;;;;;;;;;;5039769;28;20097;-82
2023/10/23 04:31:25;;;;;;;2.30;0.90;;;;;;;;;;5035158;28;20105;-82
2023/10/23 04:33:51;;;;;;;2.10;1.02;;;;;;;;;;5030976;28;20049;-82
2023/10/23 04:36:16;;;;;;;0.85;0.82;;;;;;;;;;5028249;28;20045;-82
2023/10/23 04:38:42;;;;;;;4.70;1.00;;;;;;;;;;5041788;28;20034;-82
2023/10/23 04:41:07;;;;;;;1.17;0.75;;;;;;;;;;5033555;28;20034;-82
2023/10/23 04:43:34;;;;;;;3.00;1.25;;;;;;;;;;5032173;28;20494;-82
2023/10/23 04:45:59;;;;;;;3.58;1.77;;;;;;;;;;5040318;28;20234;-82
2023/10/23 04:48:25;;;;;;;4.50;1.50;;;;;;;;;;5037768;28;20048;-82
2023/10/23 04:50:50;;;;;;;4.30;1.30;;;;;;;;;;5038322;28;20038;-81
2023/10/23 04:53:16;;;;;;;2.17;1.30;;;;;;;;;;5010334;28;20034;-82
2023/10/23 04:55:41;;;;;;;3.53;1.50;;;;;;;;;;5028619;28;20056;-81
2023/10/23 04:58:08;;;;;;;3.03;1.30;;;;;;;;;;5030663;28;20395;-81
2023/10/23 05:00:35;;;;;;;2.30;1.40;;;;;;;;;;5037594;28;20468;-82
2023/10/23 05:03:00;;;;;;;2.28;1.58;;;;;;;;;;5032295;28;20038;-82
2023/10/23 05:05:26;;;;;;;2.92;1.70;;;;;;;;;;5037989;28;20435;-82
2023/10/23 05:07:51;;;;;;;3.70;1.60;;;;;;;;;;5025319;28;20061;-82
2023/10/23 05:10:17;;;;;;;4.28;1.83;;;;;;;;;;5039201;28;20041;-82
2023/10/23 05:12:42;;;;;;;3.05;1.80;;;;;;;;;;5032830;28;20045;-81
2023/10/23 05:15:08;;;;;;;2.45;1.60;;;;;;;;;;5029165;28;20041;-81
2023/10/23 05:17:34;;;;;;;5.15;1.75;;;;;;;;;;5024923;28;20045;-81
2023/10/23 05:19:59;;;;;;;5.57;1.80;;;;;;;;;;5035442;28;20029;-82
2023/10/23 05:22:25;;;;;;;2.03;1.40;;;;;;;;;;5033514;28;20033;-82
2023/10/23 05:24:50;;;;;;;2.92;1.55;;;;;;;;;;5029245;28;20057;-82
2023/10/23 05:27:20;;;;;;;7.03;1.75;;;;;;;;;;5024577;28;20041;-82
2023/10/23 05:29:45;;;;;;;4.22;1.83;;;;;;;;;;5037674;28;20491;-81
2023/10/23 05:32:11;;;;;;;3.60;1.75;;;;;;;;;;5034153;28;20034;-82
2023/10/23 05:34:37;;;;;;;2.05;1.30;;;;;;;;;;5027723;28;20037;-82
2023/10/23 05:37:02;;;;;;;3.97;1.52;;;;;;;;;;5024706;28;20395;-82
2023/10/23 05:39:28;;;;;;;2.28;1.50;;;;;;;;;;5022384;28;20034;-82
2023/10/23 05:41:54;;;;;;;4.80;2.30;;;;;;;;;;5034844;28;20033;-82
2023/10/23 05:44:20;;;;;;;2.47;1.80;;;;;;;;;;5022936;28;20052;-82
2023/10/23 05:46:45;;;;;;;3.92;1.40;;;;;;;;;;5025649;28;20041;-79
2023/10/23 05:49:11;;;;;;;6.03;1.50;;;;;;;;;;5021378;28;20040;-82
2023/10/23 05:51:36;;;;;;;5.45;1.70;;;;;;;;;;5033417;28;20037;-82
2023/10/23 05:54:02;;;;;;;4.53;1.40;;;;;;;;;;5032188;28;20094;-82
2023/10/23 05:56:28;;;;;;;2.25;1.40;;;;;;;;;;5027783;28;20460;-82
2023/10/23 05:58:54;;;;;;;2.00;1.20;;;;;;;;;;5023225;28;20484;-82
2023/10/23 06:01:19;;;;;;;1.67;1.20;;;;;;;;;;5027500;28;20125;-82
2023/10/23 06:03:45;;;;;;;3.58;1.33;;;;;;;;;;5032497;28;20041;-82
2023/10/23 06:06:12;;;;;;;4.45;1.77;;;;;;;;;;5027931;28;20041;-83
2023/10/23 06:08:38;;;;;;;5.32;1.58;;;;;;;;;;5023155;28;20025;-82
2023/10/23 06:11:10;;;;;;;2.60;1.80;;;;;;;;;;5022664;28;20377;-83
2023/10/23 06:13:36;;;;;;;4.53;2.33;;;;;;;;;;5032215;28;20514;-82
2023/10/23 06:16:04;;;;;;;2.85;1.67;;;;;;;;;;5029199;28;20045;-82
2023/10/23 06:18:34;;;;;;;2.33;1.48;;;;;;;;;;5025806;28;20034;-83
2023/10/23 06:21:03;;;;;;;5.05;1.80;;;;;;;;;;5021555;28;20072;-82
2023/10/23 06:23:33;;;;;;;6.57;2.35;;;;;;;;;;5029933;28;20484;-83
2023/10/23 06:25:59;;;;;;;6.72;2.75;;;;;;;;;;5032776;28;20049;-83
2023/10/23 06:28:25;;;;;;;15.65;5.72;;;;;;;;;;5027145;28;20041;-82
2023/10/23 06:30:51;;;;;;;12.05;2.42;;;;;;;;;;5022433;28;20057;-83
2023/10/23 06:33:16;;;;;;;9.00;4.10;;;;;;;;;;5032022;28;20053;-83
2023/10/23 06:35:42;;;;;;;5.00;2.03;;;;;;;;;;5033261;28;20060;-83
2023/10/23 06:38:07;;;;;;;8.25;1.80;;;;;;;;;;5029244;28;20128;-83
2023/10/23 06:40:33;;;;;;;6.45;2.92;;;;;;;;;;5023145;28;20041;-83
2023/10/23 06:42:58;;;;;;;3.15;1.48;;;;;;;;;;5027901;28;20041;-83
2023/10/23 06:45:24;;;;;;;1.50;1.10;;;;;;;;;;5025738;28;20063;-82
2023/10/23 06:47:49;;;;;;;2.67;1.50;;;;;;;;;;5028255;28;20049;-83
2023/10/23 06:50:16;;;;;;;2.33;1.10;;;;;;;;;;5022956;28;20084;-82
2023/10/23 06:52:43;;;;;;;2.05;1.35;;;;;;;;;;5024017;28;20056;-82
2023/10/23 06:55:08;;;;;;;1.80;1.10;;;;;;;;;;5034079;28;20038;-82
2023/10/23 06:57:34;;;;;;;5.43;1.10;;;;;;;;;;5028761;28;20037;-82
2023/10/23 06:59:59;;;;;;;2.30;1.10;;;;;;;;;;5023702;28;20082;-82
2023/10/23 07:02:25;;;;;;;2.58;1.50;;;;;;;;;;5018741;28;20041;-82
2023/10/23 07:04:50;;;;;;;2.25;1.17;;;;;;;;;;5033484;28;20071;-83
2023/10/23 07:07:16;;;;;;;3.20;1.30;;;;;;;;;;5028467;28;20033;-82
2023/10/23 07:09:42;;;;;;;2.85;1.20;;;;;;;;;;5024362;28;20041;-83
2023/10/23 07:12:07;;;;;;;3.40;0.98;;;;;;;;;;5017858;28;20041;-78
2023/10/23 07:14:33;;;;;;;2.65;1.52;;;;;;;;;;5027568;28;20030;-79
2023/10/23 07:16:58;;;;;;;5.63;1.35;;;;;;;;;;5025259;28;20063;-83
2023/10/23 07:19:24;;;;;;;3.67;1.50;;;;;;;;;;5026245;28;20142;-86
2023/10/23 07:21:49;;;;;;;1.75;1.10;;;;;;;;;;5021683;28;20026;-85
2023/10/23 07:24:15;;;;;;;3.53;1.10;;;;;;;;;;5018406;28;20045;-82
2023/10/23 07:26:40;;;;;;;1.50;1.10;;;;;;;;;;5025497;28;20052;-82
2023/10/23 07:29:06;;;;;;;3.22;1.08;;;;;;;;;;5030477;28;20030;-82
2023/10/23 07:31:31;;;;;;;1.77;1.00;;;;;;;;;;5027179;28;20037;-83
2023/10/23 07:33:57;;;;;;;1.92;0.95;;;;;;;;;;5023993;28;20068;-83
2023/10/23 07:36:23;;;;;;;1.95;1.00;;;;;;;;;;5019868;28;20030;-83
2023/10/23 07:38:49;;;;;;;2.03;1.05;;;;;;;;;;5033523;28;20542;-83
2023/10/23 07:41:14;;;;;;;1.92;1.27;;;;;;;;;;5032104;28;20061;-83
2023/10/23 07:43:41;;;;;;;1.80;1.10;;;;;;;;;;5028626;28;20425;-83
2023/10/23 07:46:09;;;;;;;3.72;1.13;;;;;;;;;;5021493;28;20065;-82
2023/10/23 07:48:36;;;;;;;1.70;1.02;;;;;;;;;;5020627;28;20048;-82
2023/10/23 07:51:03;;;;;;;2.28;1.15;;;;;;;;;;5024224;28;20096;-82
2023/10/23 07:53:32;;;;;;;8.40;4.13;;;;;;;;;;5036672;28;20057;-83
2023/10/23 07:55:58;;;;;;;5.25;3.10;;;;;;;;;;5029602;28;20034;-83
2023/10/23 07:58:23;;;;;;;2.40;1.73;;;;;;;;;;5034868;28;20046;-81
2023/10/23 08:00:53;;;;;;;2.95;1.10;;;;;;;;;;5021422;28;20018;-82
2023/10/23 08:03:19;;;;;;;2.80;1.00;;;;;;;;;;5035605;28;20457;-82
2023/10/23 08:05:44;;;;;;;1.02;0.90;;;;;;;;;;5031306;28;20046;-85
2023/10/23 08:08:10;;;;;;;1.52;0.90;;;;;;;;;;5023371;28;20097;-81
2023/10/23 08:10:35;;;;;;;5.57;0.93;;;;;;;;;;5017926;28;20042;-83
2023/10/23 08:13:01;;;;;;;1.45;0.98;;;;;;;;;;5030058;28;20056;-84
2023/10/23 08:15:26;;;;;;;3.15;0.80;;;;;;;;;;5032330;28;20079;-83
2023/10/23 08:17:51;;;;;;;1.70;1.00;;;;;;;;;;5027138;28;20042;-83
2023/10/23 08:20:17;;;;;;;1.20;0.90;;;;;;;;;;5024644;28;20038;-84
2023/10/23 08:22:43;;;;;;;2.20;1.00;;;;;;;;;;5027356;28;20034;-84
2023/10/23 08:25:08;;;;;;;3.25;1.00;;;;;;;;;;5033950;28;20247;-84
2023/10/23 08:27:34;;;;;;;2.13;1.10;;;;;;;;;;5030283;28;20041;-84
2023/10/23 08:29:59;;;;;;;1.42;0.90;;;;;;;;;;5025331;28;20038;-83
2023/10/23 08:32:25;;;;;;;1.33;0.80;;;;;;;;;;5026003;28;20042;-83
2023/10/23 08:34:53;;;;;;;1.98;1.08;;;;;;;;;;5040899;28;20041;-83
2023/10/23 08:37:20;;;;;;;1.95;0.90;;;;;;;;;;5036299;28;20054;-82
2023/10/23 08:39:45;;;;;;;1.52;0.80;;;;;;;;;;5032114;28;20093;-83
2023/10/23 08:42:11;;;;;;;2.88;0.93;;;;;;;;;;5027598;28;20057;-83
2023/10/23 08:44:37;;;;;;;1.45;0.90;;;;;;;;;;5041279;28;20029;-82
2023/10/23 08:47:03;;;;;;;1.48;0.93;;;;;;;;;;5040476;28;20087;-80
2023/10/23 08:49:29;;;;;;;3.83;1.00;;;;;;;;;;5036708;28;20040;-83
2023/10/23 08:51:57;;;;;;;1.73;0.82;;;;;;;;;;5027198;28;20516;-81
2023/10/23 08:54:23;;;;;;;2.15;1.05;;;;;;;;;;5039625;28;20083;-82
2023/10/23 08:57:09;;;;;;;1.67;0.90;;;;;;;;;;5042083;28;20046;-83
2023/10/23 08:59:36;;;;;;;2.60;0.80;;;;;;;;;;5033194;28;20049;-85
2023/10/23 09:02:01;;;;;;;1.45;0.90;;;;;;;;;;5024916;28;20041;-84
2023/10/23 09:04:28;;;;;;;1.58;0.80;;;;;;;;;;5034031;28;20036;-83
2023/10/23 09:06:55;;;;;;;2.47;1.00;;;;;;;;;;5036320;28;20096;-83
2023/10/23 09:09:22;;;;;;;2.75;1.20;;;;;;;;;;5025832;28;20048;-83
2023/10/23 09:11:50;;;;;;;1.55;1.00;;;;;;;;;;5021065;28;20041;-84
2023/10/23 09:14:31;;;;;;;1.67;1.00;;;;;;;;;;5017970;28;20033;-83
2023/10/23 09:16:57;;;;;;;3.22;1.45;;;;;;;;;;5028145;28;20037;-84
2023/10/23 09:19:36;;;;;;;2.05;1.20;;;;;;;;;;5039176;28;20083;-84
2023/10/23 09:22:10;;;;;;;1.90;0.90;;;;;;;;;;5031761;28;20084;-84
2023/10/23 09:24:36;;;;;;;2.50;0.88;;;;;;;;;;5029065;28;20117;-85
2023/10/23 09:27:04;;;;;;;1.27;0.70;;;;;;;;;;5043947;28;20442;-84
2023/10/23 09:29:30;;;;;;;1.58;0.80;;;;;;;;;;5027889;28;20065;-83
2023/10/23 09:31:59;;;;;;;1.00;0.70;;;;;;;;;;5023007;28;20053;-83
2023/10/23 09:34:25;;;;;;;1.73;0.90;;;;;;;;;;5020977;28;20038;-84
2023/10/23 09:36:51;;;;;;;1.90;0.80;;;;;;;;;;5021498;28;20041;-86
2023/10/23 09:39:18;;;;;;;1.35;0.65;;;;;;;;;;5035096;28;20026;-83
2023/10/23 09:41:47;;;;;;;1.13;0.70;;;;;;;;;;5029200;28;20041;-83
2023/10/23 09:44:14;;;;;;;1.48;1.08;;;;;;;;;;5025499;28;20037;-83
2023/10/23 09:46:42;;;;;;;1.75;0.80;;;;;;;;;;5021073;28;20056;-83
2023/10/23 09:49:09;;;;;;;1.80;0.70;;;;;;;;;;5032031;28;20033;-83
2023/10/23 09:51:38;;;;;;;2.08;0.80;;;;;;;;;;5029322;28;20046;-83
2023/10/23 09:54:06;;;;;;;1.90;0.80;;;;;;;;;;5026279;28;20057;-84
2023/10/23 09:56:32;;;;;;;2.08;1.30;;;;;;;;;;5021370;28;20044;-84
2023/10/23 09:59:00;;;;;;;0.88;0.60;;;;;;;;;;5026804;28;20116;-85
2023/10/23 10:01:36;;;;;;;1.33;0.68;;;;;;;;;;5031104;28;20041;-84
2023/10/23 10:04:11;;;;;;;1.45;0.60;;;;;;;;;;5026231;28;20072;-82
2023/10/23 10:06:39;;;;;;;5.38;0.90;;;;;;;;;;5025907;28;20046;-85
2023/10/23 10:09:12;;;;;;;2.45;0.60;;;;;;;;;;5012937;28;20542;-86
2023/10/23 10:11:39;;;;;;;0.73;0.50;;;;;;;;;;5024987;28;20388;-84
2023/10/23 10:14:07;;;;;;;0.75;0.60;;;;;;;;;;5022330;28;20029;-85
2023/10/23 10:16:33;;;;;;;1.27;0.52;;;;;;;;;;5026880;28;20034;-85
2023/10/23 10:19:00;;;;;;;1.67;0.70;;;;;;;;;;5026418;28;20477;-85
2023/10/23 10:21:29;;;;;;;5.32;0.60;;;;;;;;;;5038483;28;20044;-86
2023/10/23 10:23:58;;;;;;;1.27;0.55;;;;;;;;;;5034144;28;20068;-86
2023/10/23 10:26:25;;;;;;;1.65;0.63;;;;;;;;;;5023758;28;20048;-85
2023/10/23 10:28:52;;;;;;;0.73;0.50;;;;;;;;;;5015843;28;20034;-85
2023/10/23 10:31:17;;;;;;;1.92;0.70;;;;;;;;;;5032834;28;20101;-86
2023/10/23 10:33:43;;;;;;;2.15;0.60;;;;;;;;;;5029714;28;20123;-85
2023/10/23 10:36:10;;;;;;;1.08;0.90;;;;;;;;;;5022565;28;20036;-85
2023/10/23 10:38:36;;;;;;;1.15;0.63;;;;;;;;;;5020553;28;20073;-84
2023/10/23 10:41:03;;;;;;;1.20;0.50;;;;;;;;;;5028975;28;20079;-85
2023/10/23 10:43:39;;;;;;;4.20;0.85;;;;;;;;;;5028812;28;20121;-86
2023/10/23 10:46:17;;;;;;;0.90;0.63;;;;;;;;;;5023481;28;20101;-87
2023/10/23 10:48:44;;;;;;;2.67;0.68;;;;;;;;;;5019014;28;20038;-87
2023/10/23 10:51:15;;;;;;;1.88;1.05;;;;;;;;;;5021590;28;20033;-87
2023/10/23 10:53:40;;;;;;;3.13;0.90;;;;;;;;;;5030236;28;20037;-86
2023/10/23 10:56:08;;;;;;;4.00;1.00;;;;;;;;;;5024575;28;20141;-85
2023/10/23 10:58:36;;;;;;;3.83;0.93;;;;;;;;;;5020578;28;20038;-86
2023/10/23 11:01:02;;;;;;;2.50;0.70;;;;;;;;;;5022557;28;20025;-84
2023/10/23 11:03:34;;;;;;;3.45;0.75;;;;;;;;;;5030639;28;20041;-85
2023/10/23 11:05:59;;;;;;;4.18;1.40;;;;;;;;;;5022967;28;20057;-85
2023/10/23 11:08:26;;;;;;;2.47;1.30;;;;;;;;;;5021502;28;20439;-84
2023/10/23 11:10:52;;;;;;;3.20;0.80;;;;;;;;;;5017636;28;20116;-85
2023/10/23 11:13:17;;;;;;;1.85;0.88;;;;;;;;;;5031817;28;20061;-85
2023/10/23 11:15:43;;;;;;;1.45;0.52;;;;;;;;;;5029178;28;20030;-84
2023/10/23 11:18:08;;;;;;;1.02;0.60;;;;;;;;;;5023307;28;20055;-85
2023/10/23 11:20:37;;;;;;;5.60;0.70;;;;;;;;;;5019825;28;20037;-85
2023/10/23 11:23:04;;;;;;;3.03;0.57;;;;;;;;;;5030970;28;20089;-85
2023/10/23 11:25:29;;;;;;;1.60;0.55;;;;;;;;;;5025737;28;20037;-85
2023/10/23 11:27:55;;;;;;;1.27;0.60;;;;;;;;;;5025794;28;20514;-85
2023/10/23 11:30:25;;;;;;;1.05;0.50;;;;;;;;;;5022005;28;20046;-85
2023/10/23 11:32:51;;;;;;;0.80;0.55;;;;;;;;;;5026372;28;20502;-85
2023/10/23 11:35:17;;;;;;;2.40;0.77;;;;;;;;;;5032924;28;20026;-85
2023/10/23 11:37:43;;;;;;;1.02;0.63;;;;;;;;;;5025034;28;20108;-85
2023/10/23 11:40:09;;;;;;;3.17;0.70;;;;;;;;;;5023283;28;20160;-84
2023/10/23 11:42:43;;;;;;;2.10;0.70;;;;;;;;;;5020050;28;20249;-85
2023/10/23 11:45:09;;;;;;;0.95;0.60;;;;;;;;;;5027074;28;20029;-85
2023/10/23 11:47:38;;;;;;;1.25;0.60;;;;;;;;;;5027651;28;20447;-85
2023/10/23 11:50:10;;;;;;;3.22;0.70;;;;;;;;;;5027360;28;20101;-83
2023/10/23 11:52:41;;;;;;;1.52;0.55;;;;;;;;;;5016457;28;20566;-83
2023/10/23 11:55:08;;;;;;;1.08;0.80;;;;;;;;;;5011599;28;20046;-82
2023/10/23 11:57:34;;;;;;;2.72;0.80;;;;;;;;;;5007282;28;20488;-84
2023/10/23 12:00:06;;;;;;;4.68;0.77;;;;;;;;;;5001526;28;20037;-83
2023/10/23 12:02:39;;;;;;;3.63;0.70;;;;;;;;;;4998399;28;20042;-83
2023/10/23 12:05:06;;;;;;;1.30;0.70;;;;;;;;;;5025356;28;20041;-83
2023/10/23 12:07:32;;;;;;;1.23;0.70;;;;;;;;;;5028543;28;20513;-83
2023/10/23 12:09:57;;;;;;;2.85;0.80;;;;;;;;;;5023695;28;20077;-83
2023/10/23 12:12:23;;;;;;;1.23;0.73;;;;;;;;;;4999569;28;20034;-83
2023/10/23 12:14:48;;;;;;;2.75;0.73;;;;;;;;;;5015507;28;20061;-83
2023/10/23 12:17:14;;;;;;;2.58;0.70;;;;;;;;;;5031557;28;20105;-83
2023/10/23 12:19:39;;;;;;;2.17;0.73;;;;;;;;;;5028569;28;20034;-83
2023/10/23 12:22:05;;;;;;;1.38;0.75;;;;;;;;;;5023498;28;20669;-82
2023/10/23 12:24:30;;;;;;;1.10;0.68;;;;;;;;;;5022695;28;20037;-83
2023/10/23 12:26:56;;;;;;;3.40;0.75;;;;;;;;;;5034651;28;20029;-83
2023/10/23 12:29:22;;;;;;;1.67;0.90;;;;;;;;;;5026201;28;20480;-84
2023/10/23 12:31:47;;;;;;;2.05;0.90;;;;;;;;;;5024879;28;20040;-83
2023/10/23 12:34:13;;;;;;;3.03;1.08;;;;;;;;;;5021065;28;20084;-83
2023/10/23 12:36:38;;;;;;;2.00;1.00;;;;;;;;;;5035956;28;20044;-83
2023/10/23 12:39:06;;;;;;;2.65;0.90;;;;;;;;;;5027303;28;20030;-82
2023/10/23 12:41:32;;;;;;;3.45;0.90;;;;;;;;;;5018520;28;20100;-83
2023/10/23 12:43:57;;;;;;;4.60;1.00;;;;;;;;;;5002822;28;20034;-83
2023/10/23 12:46:23;;;;;;;2.10;1.30;;;;;;;;;;5025830;28;20373;-83
2023/10/23 12:48:48;;;;;;;2.50;1.80;;;;;;;;;;5032897;28;20052;-83
2023/10/23 12:51:14;;;;;;;1.80;1.23;;;;;;;;;;5023889;28;20120;-84
2023/10/23 12:53:39;;;;;;;2.40;1.40;;;;;;;;;;5024379;28;20511;-83
2023/10/23 12:56:05;;;;;;;2.47;1.50;;;;;;;;;;5026193;28;20022;-84
2023/10/23 12:58:30;;;;;;;1.52;1.20;;;;;;;;;;5033677;28;20452;-84
2023/10/23 13:00:56;;;;;;;2.85;1.20;;;;;;;;;;5029572;28;20499;-84
2023/10/23 13:03:21;;;;;;;3.65;1.50;;;;;;;;;;5021352;28;20065;-81
2023/10/23 13:05:48;;;;;;;3.85;1.50;;;;;;;;;;5019819;28;20061;-83
2023/10/23 13:08:14;;;;;;;3.33;1.88;;;;;;;;;;5033897;28;20038;-82
2023/10/23 13:10:40;;;;;;;4.20;1.50;;;;;;;;;;5030467;28;20554;-82
2023/10/23 13:13:06;;;;;;;2.30;1.77;;;;;;;;;;5022816;28;20102;-83
2023/10/23 13:15:31;;;;;;;4.03;1.40;;;;;;;;;;5016926;28;20124;-83
2023/10/23 13:18:00;;;;;;;2.70;1.52;;;;;;;;;;5028674;28;20040;-83
2023/10/23 13:20:25;;;;;;;2.17;1.33;;;;;;;;;;5032870;28;20401;-83
2023/10/23 13:22:51;;;;;;;2.97;1.40;;;;;;;;;;5021089;28;20737;-83
2023/10/23 13:25:18;;;;;;;2.55;1.65;;;;;;;;;;5020922;28;20125;-82
2023/10/23 13:27:43;;;;;;;7.68;1.60;;;;;;;;;;5024919;28;20050;-83
2023/10/23 13:30:10;;;;;;;1.60;1.30;;;;;;;;;;5032107;28;20049;-81
2023/10/23 13:32:38;;;;;;;3.53;1.30;;;;;;;;;;5026370;28;20038;-84
2023/10/23 13:35:05;;;;;;;2.08;1.40;;;;;;;;;;5021289;28;20080;-84
2023/10/23 13:37:31;;;;;;;2.97;1.55;;;;;;;;;;5019477;28;20060;-83
2023/10/23 13:39:56;;;;;;;2.10;1.30;;;;;;;;;;5029337;28;20033;-82
2023/10/23 13:42:22;;;;;;;3.92;1.52;;;;;;;;;;5025528;28;20037;-82
2023/10/23 13:44:47;;;;;;;5.57;1.70;;;;;;;;;;5021367;28;20408;-82
2023/10/23 13:47:16;;;;;;;3.55;1.50;;;;;;;;;;5017170;28;20033;-82
2023/10/23 13:49:42;;;;;;;4.30;1.50;;;;;;;;;;5028652;28;20041;-82
2023/10/23 13:52:07;;;;;;;4.40;1.50;;;;;;;;;;5026833;28;20036;-82
2023/10/23 13:54:33;;;;;;;3.78;1.55;;;;;;;;;;5023064;28;20038;-82
2023/10/23 13:56:59;;;;;;;4.10;1.60;;;;;;;;;;5018115;28;20582;-82
2023/10/23 13:59:25;;;;;;;3.70;1.60;;;;;;;;;;5032641;28;20033;-82
2023/10/23 14:01:50;;;;;;;11.82;2.05;;;;;;;;;;5028220;28;20037;-82
2023/10/23 14:04:16;;;;;;;6.95;1.67;;;;;;;;;;5024029;28;20557;-82
2023/10/23 14:06:41;;;;;;;2.53;1.23;;;;;;;;;;5019777;28;20061;-82
2023/10/23 14:09:07;;;;;;;3.90;1.40;;;;;;;;;;5019313;28;20119;-82
2023/10/23 14:11:33;;;;;;;3.22;1.52;;;;;;;;;;5029543;28;20395;-82
2023/10/23 14:13:58;;;;;;;4.30;1.55;;;;;;;;;;5025596;28;20514;-82
2023/10/23 14:16:25;;;;;;;3.53;1.27;;;;;;;;;;5021890;28;20033;-85
2023/10/23 14:18:51;;;;;;;3.50;1.65;;;;;;;;;;5014751;28;20114;-83
2023/10/23 14:21:16;;;;;;;2.65;1.40;;;;;;;;;;5038983;28;20065;-85
2023/10/23 14:23:42;;;;;;;5.28;1.70;;;;;;;;;;5026363;28;20022;-84
2023/10/23 14:26:08;;;;;;;5.22;1.50;;;;;;;;;;5018289;28;20775;-85
2023/10/23 14:28:35;;;;;;;2.20;1.15;;;;;;;;;;5017205;28;20029;-84
2023/10/23 14:31:00;;;;;;;2.13;1.20;;;;;;;;;;5031046;28;20041;-86
2023/10/23 14:33:27;;;;;;;3.83;1.67;;;;;;;;;;5031354;28;20054;-88
2023/10/23 14:35:55;;;;;;;4.53;1.65;;;;;;;;;;5009144;28;20069;-87
2023/10/23 14:38:24;;;;;;;3.28;1.40;;;;;;;;;;5004762;28;20129;-86